Nearby METAR Reports

 

KSFO - San Francisco, California, USA
Distance from station: NNW 8km
Updated: Fri, 24-May-2019 4:56pm PDT
Partly cloudy
Partly cloudy
 Wind from W
Wind: W 18 mph , 30 km/h
Temperature: 64°F , 18°C
Dew Point: 52°F , 11°C
Humidity: 64%
Barometer: 29.94 inHg , 1013.9 hPa
Clouds: Partly cloudy
Visibility: 10 miles , 16 km
Cloud details: Few Clouds 1000 ft
Few Clouds 3500 ft
Partly cloudy 20000 ft
2019/05/24 23:56 KSFO 242356Z 27016KT 10SM FEW010 FEW035 SCT200 18/11 A2994 RMK AO2 SLP138 T01830111 10217 20178 56016
KSQL - San Carlos Airpo, California, USA
Distance from station: ESE 8km
Updated: Fri, 24-May-2019 3:47pm PDT
NOT Current
Few Clouds
Few Clouds
 Wind from WNW
Wind: WNW 9 mph , 15 km/h
Temperature: 70°F , 21°C
Dew Point: 54°F , 12°C
Humidity: 57%
Barometer: 29.97 inHg , 1014.9 hPa
Clouds: Few Clouds
Visibility: 10 miles , 16 km
Cloud details: Few Clouds 3500 ft
2019/05/24 22:47 KSQL 242247Z 30008KT 10SM FEW035 21/12 A2997
 
KHAF - Half Moon Bay, California, USA
Distance from station: WSW 15km
Updated: Fri, 24-May-2019 5:15pm PDT
Overcast
Overcast
 Wind from SW
Wind: SW 7 mph , 11 km/h
Temperature: 57°F , 14°C
Dew Point: 52°F , 11°C
Humidity: 82%
Barometer: 29.99 inHg , 1015.6 hPa
Clouds: Overcast
Visibility: 10 miles , 16 km
Cloud details: Overcast 1200 ft
2019/05/25 00:15 KHAF 250015Z AUTO 23006KT 10SM OVC012 14/11 A2999 RMK AO2
KOAK - Oakland, California, USA
Distance from station: NNE 21km
Updated: Fri, 24-May-2019 4:53pm PDT
Partly cloudy
Partly cloudy
 Wind from WNW
Wind: WNW 15 mph , 24 km/h
Temperature: 64°F , 18°C
Dew Point: 52°F , 11°C
Humidity: 64%
Barometer: 29.96 inHg , 1014.6 hPa
Clouds: Partly cloudy
Visibility: 10 miles , 16 km
Cloud details: Few Clouds 2600 ft
Partly cloudy 18000 ft
2019/05/24 23:53 KOAK 242353Z 29013KT 10SM FEW026 SCT180 18/11 A2996 RMK AO2 SLP143 T01830111 10200 20178 56020
 
KPAO - Palo Alto, California, USA
Distance from station: ESE 21km
Updated: Fri, 24-May-2019 3:47pm PDT
NOT Current
Few Clouds
Few Clouds
 Wind from NNW
Wind: NNW 14 mph , 22 km/h
Temperature: 66°F , 19°C
Dew Point: 57°F , 14°C
Humidity: 73%
Barometer: 29.96 inHg , 1014.6 hPa
Clouds: Few Clouds
Visibility: 10 miles , 16 km
Cloud details: Few Clouds 4000 ft
2019/05/24 22:47 KPAO 242247Z 34012KT 10SM FEW040 19/14 A2996
KHWD - Hayward, California, USA
Distance from station: NE 23km
Updated: Fri, 24-May-2019 4:54pm PDT
Clear
Clear
 Wind from W
Wind: W 16 mph , 26 km/h
Temperature: 64°F , 18°C
Dew Point: 52°F , 11°C
Humidity: 64%
Barometer: 29.94 inHg , 1013.9 hPa
Clouds: Clear
Visibility: 10 miles , 16 km
2019/05/24 23:54 KHWD 242354Z 28014KT 10SM CLR 18/11 A2994 RMK AO2 SLP149 T01830111 10211 20172 56019
 
KNUQ - Moffett Nas/Mtn, California, USA
Distance from station: ESE 30km
Updated: Fri, 24-May-2019 4:56pm PDT
Clear
Clear
 Wind from NNW
Wind: NNW 13 mph , 20 km/h, Gust: 21 mph , 33 km/h
Temperature: 68°F , 20°C
Dew Point: 55°F , 13°C
Humidity: 64%
Barometer: 29.94 inHg , 1013.9 hPa
Clouds: Clear
Visibility: 10 miles , 16 km
2019/05/24 23:56 KNUQ 242356Z 34011G18KT 10SM CLR 20/13 A2994 RMK AO2 SLP140 T02000133 10217 20194 56021
KSJC - San Jose, California, USA
Distance from station: ESE 42km
Updated: Fri, 24-May-2019 4:53pm PDT
Partly cloudy
Partly cloudy
 Wind from NW
Wind: NW 14 mph , 22 km/h
Temperature: 72°F , 22°C
Dew Point: 59°F , 15°C
Humidity: 65%
Barometer: 29.92 inHg , 1013.2 hPa
Clouds: Partly cloudy
Visibility: 10 miles , 16 km
Cloud details: Few Clouds 2500 ft
Few Clouds 5000 ft
Partly cloudy 8000 ft
2019/05/24 23:53 KSJC 242353Z 32012KT 10SM FEW025 FEW050 SCT080 22/15 A2992 RMK AO2 SLP132 CB DSNT E TCU DSNT NE T02170150 10222 20189 56020
 
KLVK - Livermore, California, USA
Distance from station: ENE 49km
Updated: Fri, 24-May-2019 4:53pm PDT
Clear
Clear
 Wind from WNW
Wind: WNW 14 mph , 22 km/h
Temperature: 73°F , 23°C
Dew Point: 54°F , 12°C
Humidity: 50%
Barometer: 29.91 inHg , 1012.9 hPa
Clouds: Clear
Visibility: 10 miles , 16 km
2019/05/24 23:53 KLVK 242353Z 29012KT 10SM CLR 23/12 A2991 RMK AO2 SLP125 T02280122 10239 20183 56023
KRHV - San Jose/Reid, California, USA
Distance from station: ESE 53km
Updated: Fri, 24-May-2019 4:47pm PDT
Partly cloudy
Partly cloudy
 Wind from WNW
Wind: WNW 10 mph , 17 km/h
Temperature: 73°F , 23°C
Dew Point: 55°F , 13°C
Humidity: 53%
Barometer: 29.92 inHg , 1013.2 hPa
Clouds: Partly cloudy
Visibility: 10 miles , 16 km
Cloud details: Partly cloudy 5000 ft
2019/05/24 23:47 KRHV 242347Z 30009KT 10SM SCT050 23/13 A2992
 
KCCR - Concord, California, USA
Distance from station: NNE 56km
Updated: Fri, 24-May-2019 4:53pm PDT
Clear
Clear
 Wind from W
Wind: W 9 mph , 15 km/h
Temperature: 72°F , 22°C
Dew Point: 52°F , 11°C
Humidity: 50%
Barometer: 29.91 inHg , 1012.9 hPa
Clouds: Clear
Visibility: 10 miles , 16 km
2019/05/24 23:53 KCCR 242353Z 27008KT 10SM CLR 22/11 A2991 RMK AO2 SLP114 T02220106 10239 20194 56025
KDVO - Novato/Gnoss Fld, California, USA
Distance from station: NNW 70km
Updated: Fri, 24-May-2019 4:55pm PDT
Clear
Clear
 Wind from NNW
Wind: NNW 14 mph , 22 km/h
Temperature: 70°F , 21°C
Dew Point: 57°F , 14°C
Humidity: 64%
Barometer: 29.93 inHg , 1013.5 hPa
Clouds: Clear
Visibility: 10 miles , 16 km
2019/05/24 23:55 KDVO 242355Z AUTO 34012KT 10SM CLR 21/14 A2993 RMK AO2
 
KAPC - Napa, California, USA
Distance from station: N 73km
Updated: Fri, 24-May-2019 4:54pm PDT
Clear
Clear
 Wind from SSW
Wind: SSW 18 mph , 30 km/h
Temperature: 64°F , 18°C
Dew Point: 55°F , 13°C
Humidity: 73%
Barometer: 29.92 inHg , 1013.2 hPa
Clouds: Clear
Visibility: 10 miles , 16 km
2019/05/24 23:54 KAPC 242354Z 20016KT 10SM CLR 18/13 A2992 RMK AO2 SLP123 T01830133 10194 20156 56025